Lone Grove, Oklahoma
Current Conditions -  °F | °C
As of 2:55 AM on Thursday 23 Oct 2014 (Local Time) from K1F0 Reporting Station
Overcast Overcast  
Wind Chill: 63°   Ceiling: 4900
Heat Index: 63°   Visibility: 10mi
Dew Point: 54°   Wind: 6mph
Humidity: 72%   Direction: 150°SSE
Pressure: 30.12"   Gusts: NA
Location:  34.18°N, 97.26°W
Report Text: K1F0 230755Z AUTO 15005KT 10SM BKN049 OVC070 17/12 A3012 RMK AO2
Loading
Personal Weather Stations






























Interactive Weather Map
Tropical Storm Tracking
New forecast layout! Learn more

10-Day Weather Forecast

Advertisements
Track Severe Weather on mobile